createdAt,value
2022-08-16T00:00:38.759Z,97248.28
2022-08-16T00:01:42.231Z,97238.22
2022-08-16T00:02:49.093Z,97240.94
2022-08-16T00:03:53.192Z,97246.53
2022-08-16T00:04:59.622Z,97251.00
2022-08-16T00:06:03.344Z,97254.28
2022-08-16T00:07:07.988Z,97252.06
2022-08-16T00:08:36.508Z,97246.41
2022-08-16T00:09:41.725Z,97250.66
2022-08-16T00:10:45.061Z,97259.75
2022-08-16T00:11:52.826Z,97257.87
2022-08-16T00:12:59.003Z,97250.69
2022-08-16T00:14:02.376Z,97261.22
2022-08-16T00:15:17.081Z,97259.69
2022-08-16T00:17:05.688Z,97255.34
2022-08-16T00:17:56.171Z,97260.69
2022-08-16T00:19:00.973Z,97249.25
2022-08-16T00:20:12.431Z,97252.81
2022-08-16T00:21:15.846Z,97253.38
2022-08-16T00:22:20.815Z,97247.84
2022-08-16T00:23:40.163Z,97247.19
2022-08-16T00:24:46.731Z,97247.09
2022-08-16T00:26:35.740Z,97251.72
2022-08-16T00:27:13.066Z,97245.38
2022-08-16T00:28:22.002Z,97249.72
2022-08-16T00:29:32.801Z,97249.87
2022-08-16T00:30:36.281Z,97252.13
2022-08-16T00:31:59.867Z,97248.13
2022-08-16T00:33:08.412Z,97244.47
2022-08-16T00:34:18.256Z,97246.69
2022-08-16T00:35:26.371Z,97250.97
2022-08-16T00:36:32.265Z,97244.00
2022-08-16T00:37:56.679Z,97245.94
2022-08-16T00:38:58.853Z,97243.69
2022-08-16T00:40:06.519Z,97249.31
2022-08-16T00:41:31.148Z,97253.44
2022-08-16T00:42:41.551Z,97246.16
2022-08-16T00:43:44.564Z,97246.75
2022-08-16T00:44:56.011Z,97255.81
2022-08-16T00:46:22.463Z,97259.28
2022-08-16T00:47:40.302Z,97253.03
2022-08-16T00:48:46.938Z,97256.03
2022-08-16T00:49:56.480Z,97265.91
2022-08-16T00:51:01.115Z,97257.72
2022-08-16T00:52:05.775Z,97255.16
2022-08-16T00:53:30.785Z,97258.56
2022-08-16T00:54:34.289Z,97263.81
2022-08-16T00:55:42.264Z,97257.63
2022-08-16T00:56:57.474Z,97264.37
2022-08-16T00:58:02.468Z,97257.53
2022-08-16T00:59:09.246Z,97268.28
2022-08-16T01:00:13.943Z,97265.66
2022-08-16T01:01:23.266Z,97261.28
2022-08-16T01:02:31.823Z,97271.59
2022-08-16T01:03:37.572Z,97267.34
2022-08-16T01:05:09.691Z,97266.38
2022-08-16T01:06:40.321Z,97267.16
2022-08-16T01:07:51.192Z,97269.38
2022-08-16T01:09:00.430Z,97268.81
2022-08-16T01:10:04.337Z,97272.31
2022-08-16T01:11:24.231Z,97265.75
2022-08-16T01:12:27.397Z,97274.59
2022-08-16T01:13:33.679Z,97261.97
2022-08-16T01:14:49.443Z,97273.25
2022-08-16T01:16:03.156Z,97269.62
2022-08-16T01:17:08.489Z,97269.59
2022-08-16T01:18:39.474Z,97271.63
2022-08-16T01:19:46.457Z,97276.44
2022-08-16T01:21:22.660Z,97271.75
2022-08-16T01:22:58.904Z,97268.41
2022-08-16T01:24:02.458Z,97264.97
2022-08-16T01:25:23.819Z,97265.31
2022-08-16T01:26:38.974Z,97262.41
2022-08-16T01:27:48.475Z,97263.00
2022-08-16T01:28:52.159Z,97261.50
2022-08-16T01:30:20.659Z,97267.88
2022-08-16T01:31:31.002Z,97272.41
2022-08-16T01:32:38.935Z,97275.34
2022-08-16T01:33:44.626Z,97275.34
2022-08-16T01:34:53.696Z,97274.34
2022-08-16T01:36:12.181Z,97273.97
2022-08-16T01:37:16.137Z,97266.78
2022-08-16T01:38:25.844Z,97275.94
2022-08-16T01:39:35.369Z,97269.94
2022-08-16T01:40:38.683Z,97268.44
2022-08-16T01:41:42.324Z,97268.34
2022-08-16T01:42:53.906Z,97267.50
2022-08-16T01:44:00.964Z,97272.87
2022-08-16T01:45:05.879Z,97275.09
2022-08-16T01:46:37.073Z,97270.72
2022-08-16T01:47:49.365Z,97275.72
2022-08-16T01:48:59.187Z,97271.19
2022-08-16T01:50:59.660Z,97271.69
2022-08-16T01:51:27.428Z,97273.00
2022-08-16T01:52:31.571Z,97272.06
2022-08-16T01:53:36.318Z,97269.19
2022-08-16T01:54:47.124Z,97276.75
2022-08-16T01:55:53.890Z,97274.63
2022-08-16T01:56:57.726Z,97272.75
2022-08-16T01:58:01.845Z,97277.19
2022-08-16T01:59:15.627Z,97265.34
2022-08-16T02:00:19.844Z,97274.38
2022-08-16T02:01:23.362Z,97265.19
2022-08-16T02:02:32.083Z,97268.53
2022-08-16T02:03:35.553Z,97264.00
2022-08-16T02:04:54.364Z,97259.78
2022-08-16T02:05:57.818Z,97265.25
2022-08-16T02:07:04.146Z,97263.75
2022-08-16T02:08:09.272Z,97267.31
2022-08-16T02:09:33.825Z,97258.38
2022-08-16T02:10:38.038Z,97260.47
2022-08-16T02:11:48.387Z,97268.09
2022-08-16T02:13:00.002Z,97263.00
2022-08-16T02:14:05.595Z,97262.75
2022-08-16T02:15:25.822Z,97260.50
2022-08-16T02:16:28.995Z,97256.28
2022-08-16T02:17:32.077Z,97267.59
2022-08-16T02:18:36.990Z,97260.69
2022-08-16T02:19:59.454Z,97257.97
2022-08-16T02:21:05.410Z,97253.06
2022-08-16T02:22:34.975Z,97250.13
2022-08-16T02:23:37.664Z,97256.28
2022-08-16T02:24:46.026Z,97258.25
2022-08-16T02:25:52.176Z,97246.91
2022-08-16T02:26:56.681Z,97258.06
2022-08-16T02:28:00.370Z,97254.06
2022-08-16T02:29:04.402Z,97259.63
2022-08-16T02:30:36.561Z,97256.72
2022-08-16T02:32:03.300Z,97251.78
2022-08-16T02:33:08.488Z,97254.47
2022-08-16T02:34:12.532Z,97257.13
2022-08-16T02:35:16.024Z,97254.16
2022-08-16T02:36:48.139Z,97254.12
2022-08-16T02:37:52.540Z,97248.59
2022-08-16T02:38:56.192Z,97251.25
2022-08-16T02:40:00.038Z,97248.34
2022-08-16T02:41:09.519Z,97248.31
2022-08-16T02:42:12.642Z,97247.66
2022-08-16T02:43:15.824Z,97251.78
2022-08-16T02:44:19.640Z,97248.34
2022-08-16T02:45:27.705Z,97244.81
2022-08-16T02:46:33.639Z,97248.31
2022-08-16T02:48:00.264Z,97249.13
2022-08-16T02:49:02.293Z,97248.72
2022-08-16T02:50:55.563Z,97254.69
2022-08-16T02:51:29.578Z,97250.78
2022-08-16T02:52:34.647Z,97249.13
2022-08-16T02:53:41.220Z,97247.38
2022-08-16T02:54:46.413Z,97245.78
2022-08-16T02:55:59.389Z,97244.25
2022-08-16T02:57:04.713Z,97244.94
2022-08-16T02:58:11.864Z,97244.88
2022-08-16T02:59:18.508Z,97249.75
2022-08-16T03:00:34.321Z,97250.72
2022-08-16T03:01:39.336Z,97247.22
2022-08-16T03:02:47.317Z,97246.62
2022-08-16T03:04:39.762Z,97251.56
2022-08-16T03:05:24.467Z,97248.56
2022-08-16T03:06:41.339Z,97248.91
2022-08-16T03:07:50.603Z,97243.94
2022-08-16T03:08:56.181Z,97253.66
2022-08-16T03:10:00.606Z,97246.00
2022-08-16T03:11:04.394Z,97248.25
2022-08-16T03:12:07.810Z,97252.41
2022-08-16T03:13:12.551Z,97253.69
2022-08-16T03:14:21.279Z,97244.63
2022-08-16T03:15:27.850Z,97254.00
2022-08-16T03:16:38.336Z,97252.03
2022-08-16T03:17:53.099Z,97254.16
2022-08-16T03:18:57.398Z,97255.66
2022-08-16T03:20:02.947Z,97250.75
2022-08-16T03:21:07.541Z,97259.22
2022-08-16T03:22:13.292Z,97253.03
2022-08-16T03:23:22.950Z,97255.84
2022-08-16T03:24:29.279Z,97255.28
2022-08-16T03:25:41.154Z,97250.84
2022-08-16T03:26:47.840Z,97260.25
2022-08-16T03:27:54.376Z,97260.97
2022-08-16T03:28:59.958Z,97266.53
2022-08-16T03:30:17.891Z,97268.56
2022-08-16T03:31:21.178Z,97265.78
2022-08-16T03:32:24.032Z,97269.25
2022-08-16T03:33:29.918Z,97278.38
2022-08-16T03:34:36.127Z,97272.81
2022-08-16T03:35:41.328Z,97272.84
2022-08-16T03:36:44.473Z,97275.00
2022-08-16T03:38:02.555Z,97278.41
2022-08-16T03:39:14.897Z,97274.25
2022-08-16T03:40:31.835Z,97277.03
2022-08-16T03:41:49.842Z,97285.09
2022-08-16T03:43:00.581Z,97280.59
2022-08-16T03:44:44.615Z,97288.50
2022-08-16T03:45:44.138Z,97282.47
2022-08-16T03:46:50.167Z,97290.88
2022-08-16T03:47:58.308Z,97286.53
2022-08-16T03:49:05.152Z,97283.53
2022-08-16T03:50:26.106Z,97278.88
2022-08-16T03:51:29.882Z,97288.53
2022-08-16T03:52:33.451Z,97283.69
2022-08-16T03:53:38.476Z,97291.41
2022-08-16T03:54:57.722Z,97288.09
2022-08-16T03:56:02.143Z,97281.84
2022-08-16T03:57:06.177Z,97278.38
2022-08-16T03:58:16.680Z,97283.94
2022-08-16T03:59:19.819Z,97288.13
2022-08-16T04:00:35.946Z,97294.41
2022-08-16T04:01:44.174Z,97294.47
2022-08-16T04:02:48.580Z,97294.41
2022-08-16T04:03:52.729Z,97292.19
2022-08-16T04:04:56.057Z,97297.88
2022-08-16T04:05:59.938Z,97290.38
2022-08-16T04:07:07.438Z,97293.94
2022-08-16T04:08:23.442Z,97296.38
2022-08-16T04:09:27.731Z,97298.78
2022-08-16T04:10:37.097Z,97290.00
2022-08-16T04:11:41.021Z,97292.84
2022-08-16T04:12:53.741Z,97292.81
2022-08-16T04:13:59.246Z,97291.12
2022-08-16T04:15:16.823Z,97297.50
2022-08-16T04:16:26.118Z,97298.41
2022-08-16T04:17:30.376Z,97295.50
2022-08-16T04:18:37.314Z,97299.16
2022-08-16T04:19:45.542Z,97307.03
2022-08-16T04:20:48.843Z,97312.91
2022-08-16T04:21:56.779Z,97311.09
2022-08-16T04:23:00.778Z,97311.72
2022-08-16T04:24:07.808Z,97315.59
2022-08-16T04:25:13.045Z,97307.66
2022-08-16T04:26:16.664Z,97309.03
2022-08-16T04:27:24.393Z,97310.31
2022-08-16T04:28:56.819Z,97304.75
2022-08-16T04:29:55.163Z,97304.94
2022-08-16T04:31:10.525Z,97311.19
2022-08-16T04:32:13.992Z,97306.34
2022-08-16T04:33:16.930Z,97307.66
2022-08-16T04:34:19.838Z,97301.28
2022-08-16T04:35:27.811Z,97304.66
2022-08-16T04:36:37.499Z,97304.69
2022-08-16T04:37:41.843Z,97304.13
2022-08-16T04:38:50.122Z,97306.38
2022-08-16T04:39:59.150Z,97309.31
2022-08-16T04:41:01.982Z,97310.94
2022-08-16T04:42:10.929Z,97299.06
2022-08-16T04:43:17.592Z,97306.78
2022-08-16T04:44:53.180Z,97305.44
2022-08-16T04:45:47.736Z,97305.44
2022-08-16T04:47:21.872Z,97304.53
2022-08-16T04:48:32.478Z,97312.03
2022-08-16T04:49:38.697Z,97310.84
2022-08-16T04:50:49.529Z,97308.25
2022-08-16T04:51:53.966Z,97315.41
2022-08-16T04:52:59.698Z,97312.41
2022-08-16T04:54:02.472Z,97311.19
2022-08-16T04:55:13.895Z,97307.66
2022-08-16T04:56:19.925Z,97315.94
2022-08-16T04:57:23.350Z,97310.91
2022-08-16T04:58:44.198Z,97310.16
2022-08-16T04:59:49.284Z,97316.44
2022-08-16T05:00:57.988Z,97307.44
2022-08-16T05:02:02.293Z,97312.22
2022-08-16T05:03:26.127Z,97322.00
2022-08-16T05:04:30.039Z,97320.53
2022-08-16T05:05:36.829Z,97326.75
2022-08-16T05:06:48.626Z,97327.50
2022-08-16T05:07:58.474Z,97326.50
2022-08-16T05:09:05.049Z,97324.75
2022-08-16T05:10:19.496Z,97326.22
2022-08-16T05:11:25.431Z,97333.25
2022-08-16T05:12:35.908Z,97331.84
2022-08-16T05:13:43.464Z,97330.38
2022-08-16T05:15:02.044Z,97334.47
2022-08-16T05:16:06.464Z,97334.28
2022-08-16T05:17:18.374Z,97346.09
2022-08-16T05:18:27.466Z,97345.31
2022-08-16T05:19:35.978Z,97346.53
2022-08-16T05:21:01.467Z,97349.37
2022-08-16T05:22:06.234Z,97345.94
2022-08-16T05:23:21.126Z,97351.75
2022-08-16T05:24:24.846Z,97357.34
2022-08-16T05:25:40.827Z,97355.34
2022-08-16T05:26:51.699Z,97352.66
2022-08-16T05:27:56.553Z,97356.13
2022-08-16T05:29:04.461Z,97363.06
2022-08-16T05:30:34.744Z,97362.44
2022-08-16T05:31:32.066Z,97362.59
2022-08-16T05:32:47.507Z,97361.28
2022-08-16T05:33:53.542Z,97368.38
2022-08-16T05:34:57.645Z,97365.72
2022-08-16T05:36:03.766Z,97364.25
2022-08-16T05:37:06.983Z,97372.41
2022-08-16T05:38:32.879Z,97367.22
2022-08-16T05:39:33.552Z,97365.72
2022-08-16T05:40:59.696Z,97370.69
2022-08-16T05:42:03.393Z,97374.81
2022-08-16T05:43:06.319Z,97374.91
2022-08-16T05:44:24.192Z,97375.00
2022-08-16T05:45:27.788Z,97380.16
2022-08-16T05:46:32.606Z,97379.97
2022-08-16T05:47:43.430Z,97384.25
2022-08-16T05:48:54.728Z,97381.53
2022-08-16T05:49:58.530Z,97377.47
2022-08-16T05:51:01.591Z,97378.81
2022-08-16T05:52:05.122Z,97380.91
2022-08-16T05:53:14.474Z,97375.91
2022-08-16T05:54:25.059Z,97374.47
2022-08-16T05:55:28.759Z,97383.47
2022-08-16T05:56:34.294Z,97388.78
2022-08-16T05:57:41.883Z,97380.06
2022-08-16T05:58:46.453Z,97385.78
2022-08-16T05:59:59.724Z,97388.41
2022-08-16T06:01:04.800Z,97385.34
2022-08-16T06:02:09.369Z,97382.31
2022-08-16T06:03:12.960Z,97384.84
2022-08-16T06:04:35.260Z,97383.81
2022-08-16T06:05:41.364Z,97384.47
2022-08-16T06:06:55.688Z,97390.25
2022-08-16T06:08:04.125Z,97389.38
2022-08-16T06:09:15.184Z,97388.38
2022-08-16T06:10:33.201Z,97382.88
2022-08-16T06:11:40.146Z,97382.72
2022-08-16T06:12:46.054Z,97384.50
2022-08-16T06:13:56.302Z,97388.44
2022-08-16T06:15:08.086Z,97392.59
2022-08-16T06:16:18.078Z,97393.53
2022-08-16T06:17:23.530Z,97400.31
2022-08-16T06:18:30.345Z,97398.97
2022-08-16T06:19:33.781Z,97396.59
2022-08-16T06:20:55.674Z,97392.19
2022-08-16T06:21:59.121Z,97401.16
2022-08-16T06:23:04.023Z,97391.69
2022-08-16T06:24:52.551Z,97398.09
2022-08-16T06:25:39.609Z,97393.13
2022-08-16T06:26:57.371Z,97401.53
2022-08-16T06:28:08.759Z,97394.25
2022-08-16T06:29:13.093Z,97398.84
2022-08-16T06:30:19.817Z,97390.94
2022-08-16T06:31:29.130Z,97386.25
2022-08-16T06:32:36.986Z,97384.72
2022-08-16T06:33:45.868Z,97382.75
2022-08-16T06:34:57.191Z,97374.81
2022-08-16T06:36:05.678Z,97379.66
2022-08-16T06:37:11.671Z,97373.13
2022-08-16T06:38:32.740Z,97374.50
2022-08-16T06:39:46.669Z,97371.94
2022-08-16T06:40:53.724Z,97367.53
2022-08-16T06:41:57.904Z,97378.87
2022-08-16T06:43:01.695Z,97366.06
2022-08-16T06:44:04.917Z,97364.75
2022-08-16T06:45:08.130Z,97366.88
2022-08-16T06:46:31.339Z,97365.06
2022-08-16T06:47:53.589Z,97362.31
2022-08-16T06:48:58.629Z,97365.25
2022-08-16T06:50:01.541Z,97370.53
2022-08-16T06:51:06.507Z,97362.91
2022-08-16T06:52:57.997Z,97360.59
2022-08-16T06:53:34.842Z,97352.88
2022-08-16T06:54:38.678Z,97350.84
2022-08-16T06:55:43.427Z,97354.69
2022-08-16T06:56:46.661Z,97357.22
2022-08-16T06:57:51.676Z,97351.81
2022-08-16T06:58:55.907Z,97353.12
2022-08-16T06:59:59.202Z,97347.75
2022-08-16T07:01:09.904Z,97349.47
2022-08-16T07:02:32.507Z,97342.88
2022-08-16T07:03:55.655Z,97347.41
2022-08-16T07:05:00.169Z,97345.94
2022-08-16T07:06:06.622Z,97352.69
2022-08-16T07:07:14.685Z,97361.53
2022-08-16T07:08:18.136Z,97362.47
2022-08-16T07:09:22.604Z,97366.03
2022-08-16T07:10:32.603Z,97371.69
2022-08-16T07:11:45.756Z,97368.84
2022-08-16T07:13:03.136Z,97374.06
2022-08-16T07:14:25.650Z,97372.69
2022-08-16T07:15:29.654Z,97384.78
2022-08-16T07:16:32.553Z,97379.19
2022-08-16T07:17:36.532Z,97375.75
2022-08-16T07:18:58.871Z,97377.78
2022-08-16T07:20:35.595Z,97378.56
2022-08-16T07:21:45.793Z,97385.31
2022-08-16T07:22:59.032Z,97379.47
2022-08-16T07:24:06.191Z,97376.91
2022-08-16T07:25:13.195Z,97380.47
2022-08-16T07:26:25.609Z,97374.19
2022-08-16T07:27:28.901Z,97374.00
2022-08-16T07:28:37.424Z,97378.66
2022-08-16T07:29:40.662Z,97383.66
2022-08-16T07:30:46.996Z,97375.84
2022-08-16T07:31:50.144Z,97382.38
2022-08-16T07:32:56.911Z,97379.81
2022-08-16T07:33:59.900Z,97391.44
2022-08-16T07:35:03.053Z,97391.72
2022-08-16T07:36:09.722Z,97387.03
2022-08-16T07:37:12.878Z,97384.25
2022-08-16T07:38:33.868Z,97380.84
2022-08-16T07:39:43.268Z,97390.09
2022-08-16T07:41:09.377Z,97395.19
2022-08-16T07:42:09.391Z,97399.38
2022-08-16T07:43:24.469Z,97401.47
2022-08-16T07:44:49.160Z,97403.63
2022-08-16T07:45:54.351Z,97397.50
2022-08-16T07:46:57.281Z,97406.50
2022-08-16T07:48:00.885Z,97412.03
2022-08-16T07:49:15.339Z,97404.19
2022-08-16T07:50:57.921Z,97405.09
2022-08-16T07:51:44.390Z,97393.47
2022-08-16T07:52:48.950Z,97393.66
2022-08-16T07:54:02.510Z,97393.72
2022-08-16T07:55:15.682Z,97390.12
2022-08-16T07:56:19.679Z,97390.69
2022-08-16T07:57:24.289Z,97400.47
2022-08-16T07:58:34.695Z,97385.75
2022-08-16T07:59:46.229Z,97392.19
2022-08-16T08:00:49.642Z,97397.13
2022-08-16T08:01:54.546Z,97394.37
2022-08-16T08:03:00.704Z,97394.00
2022-08-16T08:04:06.277Z,97397.84
2022-08-16T08:05:16.062Z,97396.31
2022-08-16T08:06:30.405Z,97397.22
2022-08-16T08:07:33.554Z,97395.06
2022-08-16T08:08:49.137Z,97397.72
2022-08-16T08:09:55.423Z,97396.31
2022-08-16T08:11:02.009Z,97397.78
2022-08-16T08:12:31.857Z,97396.59
2022-08-16T08:13:43.472Z,97407.28
2022-08-16T08:14:47.583Z,97408.81
2022-08-16T08:15:53.157Z,97412.47
2022-08-16T08:16:56.232Z,97406.28
2022-08-16T08:18:30.783Z,97405.69
2022-08-16T08:19:22.901Z,97412.81
2022-08-16T08:20:29.510Z,97408.75
2022-08-16T08:22:00.111Z,97407.47
2022-08-16T08:23:01.617Z,97410.37
2022-08-16T08:24:09.342Z,97409.78
2022-08-16T08:25:13.155Z,97400.75
2022-08-16T08:26:19.912Z,97406.38
2022-08-16T08:27:23.683Z,97412.69
2022-08-16T08:28:31.112Z,97417.56
2022-08-16T08:29:40.151Z,97418.25
2022-08-16T08:30:49.238Z,97414.78
2022-08-16T08:32:58.338Z,97411.28
2022-08-16T08:33:29.562Z,97413.38
2022-08-16T08:34:32.437Z,97423.19
2022-08-16T08:35:36.029Z,97416.19
2022-08-16T08:36:39.575Z,97425.37
2022-08-16T08:37:55.320Z,97416.31
2022-08-16T08:39:00.429Z,97417.75
2022-08-16T08:40:09.533Z,97423.41
2022-08-16T08:41:18.627Z,97429.03
2022-08-16T08:42:28.940Z,97423.44
2022-08-16T08:43:41.596Z,97420.66
2022-08-16T08:44:45.232Z,97421.38
2022-08-16T08:45:57.001Z,97426.25
2022-08-16T08:47:12.064Z,97427.66
2022-08-16T08:48:34.112Z,97422.75
2022-08-16T08:49:50.400Z,97429.09
2022-08-16T08:50:59.103Z,97424.84
2022-08-16T08:52:02.681Z,97425.53
2022-08-16T08:53:11.755Z,97424.09
2022-08-16T08:54:18.832Z,97417.78
2022-08-16T08:55:24.263Z,97421.94
2022-08-16T08:56:30.316Z,97408.53
2022-08-16T08:57:35.495Z,97417.66
2022-08-16T08:58:41.081Z,97414.16
2022-08-16T08:59:58.284Z,97409.87
2022-08-16T09:01:01.617Z,97419.63
2022-08-16T09:02:09.093Z,97418.91
2022-08-16T09:03:15.123Z,97419.63
2022-08-16T09:04:19.122Z,97415.97
2022-08-16T09:05:35.739Z,97413.16
2022-08-16T09:06:43.704Z,97418.00
2022-08-16T09:08:00.576Z,97424.31
2022-08-16T09:09:05.324Z,97424.28
2022-08-16T09:10:20.919Z,97424.19
2022-08-16T09:11:40.779Z,97424.16
2022-08-16T09:12:47.473Z,97427.63
2022-08-16T09:13:51.149Z,97420.00
2022-08-16T09:14:54.447Z,97420.06
2022-08-16T09:15:57.322Z,97424.09
2022-08-16T09:17:11.480Z,97422.75
2022-08-16T09:18:24.918Z,97421.38
2022-08-16T09:19:32.800Z,97423.25
2022-08-16T09:20:59.048Z,97425.22
2022-08-16T09:21:59.901Z,97427.19
2022-08-16T09:23:03.624Z,97419.25
2022-08-16T09:24:10.044Z,97422.59
2022-08-16T09:25:14.636Z,97419.66
2022-08-16T09:26:45.318Z,97414.72
2022-08-16T09:27:46.781Z,97416.03
2022-08-16T09:29:14.505Z,97405.97
2022-08-16T09:30:33.781Z,97410.09
2022-08-16T09:31:41.123Z,97407.97
2022-08-16T09:32:47.028Z,97401.87
2022-08-16T09:33:52.099Z,97403.81
2022-08-16T09:34:58.344Z,97403.69
2022-08-16T09:36:02.084Z,97401.50
2022-08-16T09:37:17.962Z,97395.84
2022-08-16T09:38:32.519Z,97399.28
2022-08-16T09:39:50.306Z,97394.03
2022-08-16T09:40:55.745Z,97403.03
2022-08-16T09:42:03.204Z,97407.09
2022-08-16T09:43:06.468Z,97398.31
2022-08-16T09:45:12.703Z,97399.22
2022-08-16T09:45:39.239Z,97397.19
2022-08-16T09:46:48.178Z,97403.84
2022-08-16T09:47:57.269Z,97402.25
2022-08-16T09:49:03.502Z,97400.13
2022-08-16T09:50:11.746Z,97399.69
2022-08-16T09:51:16.099Z,97401.75
2022-08-16T09:52:22.510Z,97396.81
2022-08-16T09:53:30.464Z,97398.16
2022-08-16T09:54:35.283Z,97398.56
2022-08-16T09:55:45.362Z,97401.94
2022-08-16T09:56:53.825Z,97406.66
2022-08-16T09:58:01.242Z,97400.78
2022-08-16T09:59:12.116Z,97399.31
2022-08-16T10:00:42.200Z,97407.44
2022-08-16T10:01:43.506Z,97394.69
2022-08-16T10:02:53.069Z,97396.31
2022-08-16T10:04:02.254Z,97398.28
2022-08-16T10:05:06.839Z,97394.69
2022-08-16T10:06:11.265Z,97392.25
2022-08-16T10:07:16.236Z,97403.66
2022-08-16T10:08:26.329Z,97397.84
2022-08-16T10:09:53.656Z,97394.09
2022-08-16T10:11:11.967Z,97379.13
2022-08-16T10:12:33.745Z,97383.72
2022-08-16T10:13:36.554Z,97386.19
2022-08-16T10:14:45.907Z,97384.56
2022-08-16T10:15:55.114Z,97391.03
2022-08-16T10:17:02.429Z,97385.94
2022-08-16T10:19:00.233Z,97383.53
2022-08-16T10:19:33.054Z,97380.69
2022-08-16T10:20:46.190Z,97377.16
2022-08-16T10:21:56.358Z,97379.47
2022-08-16T10:23:05.866Z,97382.75
2022-08-16T10:24:10.766Z,97387.50
2022-08-16T10:27:00.648Z,97385.88
2022-08-16T10:27:20.629Z,97378.50
2022-08-16T10:28:26.227Z,97385.03
2022-08-16T10:29:59.978Z,97387.59
2022-08-16T10:31:06.696Z,97386.97
2022-08-16T10:32:13.390Z,97387.06
2022-08-16T10:33:24.006Z,97388.34
2022-08-16T10:34:31.113Z,97382.38
2022-08-16T10:35:35.660Z,97387.28
2022-08-16T10:36:54.299Z,97395.78
2022-08-16T10:37:57.882Z,97389.91
2022-08-16T10:39:02.990Z,97391.97
2022-08-16T10:40:28.630Z,97378.94
2022-08-16T10:41:33.592Z,97384.91
2022-08-16T10:42:36.731Z,97387.19
2022-08-16T10:43:41.714Z,97384.91
2022-08-16T10:44:53.470Z,97387.50
2022-08-16T10:45:59.961Z,97381.81
2022-08-16T10:47:04.954Z,97378.84
2022-08-16T10:48:27.045Z,97388.34
2022-08-16T10:49:31.259Z,97387.84
2022-08-16T10:50:36.430Z,97383.72
2022-08-16T10:52:01.360Z,97385.03
2022-08-16T10:53:07.460Z,97387.56
2022-08-16T10:54:28.509Z,97386.63
2022-08-16T10:55:40.691Z,97382.72
2022-08-16T10:56:55.564Z,97374.22
2022-08-16T10:58:11.511Z,97381.16
2022-08-16T10:59:44.968Z,97382.53
2022-08-16T11:00:41.487Z,97374.16
2022-08-16T11:02:21.778Z,97378.44
2022-08-16T11:03:42.577Z,97380.53
2022-08-16T11:05:59.484Z,97377.50
2022-08-16T11:07:08.357Z,97370.91
2022-08-16T11:08:16.435Z,97379.47
2022-08-16T11:09:25.811Z,97369.66
2022-08-16T11:11:10.524Z,97372.19
2022-08-16T11:12:14.299Z,97376.91
2022-08-16T11:17:02.173Z,97383.72
2022-08-16T11:17:35.407Z,97381.44
2022-08-16T11:18:48.316Z,97382.06
2022-08-16T11:20:40.743Z,97389.09
2022-08-16T11:21:29.249Z,97389.81
2022-08-16T11:22:47.335Z,97384.31
2022-08-16T11:23:58.197Z,97395.97
2022-08-16T11:26:07.715Z,97390.84
2022-08-16T11:26:25.077Z,97390.47
2022-08-16T11:27:32.699Z,97391.56
2022-08-16T11:30:03.048Z,97383.59
2022-08-16T11:31:16.314Z,97385.50
2022-08-16T11:32:20.314Z,97388.63
2022-08-16T11:35:13.838Z,97393.66
2022-08-16T11:36:25.149Z,97395.47
2022-08-16T11:38:04.494Z,97393.47
2022-08-16T11:39:00.684Z,97384.25
2022-08-16T11:40:06.656Z,97390.09
2022-08-16T11:41:12.278Z,97390.75
2022-08-16T11:42:28.652Z,97389.19
2022-08-16T11:43:38.252Z,97387.78
2022-08-16T11:44:56.298Z,97387.88
2022-08-16T11:46:44.189Z,97386.97
2022-08-16T11:47:26.476Z,97385.31
2022-08-16T11:48:37.634Z,97378.75
2022-08-16T11:49:41.514Z,97384.75
2022-08-16T11:50:44.690Z,97379.44
2022-08-16T11:51:47.543Z,97381.78
2022-08-16T11:52:50.690Z,97383.50
2022-08-16T11:53:54.579Z,97377.97
2022-08-16T11:55:00.294Z,97380.34
2022-08-16T11:56:04.318Z,97379.84
2022-08-16T11:57:09.707Z,97373.16
2022-08-16T11:58:14.957Z,97383.91
2022-08-16T11:59:25.369Z,97379.53
2022-08-16T12:00:34.053Z,97373.63
2022-08-16T12:01:59.162Z,97373.25
2022-08-16T12:03:03.537Z,97382.62
2022-08-16T12:04:08.149Z,97389.44
2022-08-16T12:05:17.473Z,97389.78
2022-08-16T12:06:25.132Z,97394.34
2022-08-16T12:07:34.029Z,97391.03
2022-08-16T12:08:43.591Z,97388.72
2022-08-16T12:09:47.295Z,97390.47
2022-08-16T12:10:52.423Z,97392.25
2022-08-16T12:11:55.500Z,97382.75
2022-08-16T12:12:58.473Z,97389.63
2022-08-16T12:14:08.271Z,97376.16
2022-08-16T12:15:13.446Z,97384.16
2022-08-16T12:16:20.646Z,97385.88
2022-08-16T12:17:23.755Z,97382.31
2022-08-16T12:18:33.613Z,97385.25
2022-08-16T12:19:36.810Z,97395.91
2022-08-16T12:20:43.603Z,97388.78
2022-08-16T12:21:58.129Z,97398.66
2022-08-16T12:23:02.340Z,97406.66
2022-08-16T12:24:06.221Z,97404.00
2022-08-16T12:25:12.660Z,97408.28
2022-08-16T12:26:18.834Z,97406.94
2022-08-16T12:27:24.514Z,97413.34
2022-08-16T12:28:52.054Z,97438.59
2022-08-16T12:29:58.390Z,97411.31
2022-08-16T12:31:05.628Z,97433.13
2022-08-16T12:32:27.203Z,97427.94
2022-08-16T12:33:42.970Z,97427.88
2022-08-16T12:34:53.143Z,97426.44
2022-08-16T12:35:56.732Z,97420.16
2022-08-16T12:37:03.589Z,97418.63
2022-08-16T12:38:41.425Z,97410.56
2022-08-16T12:39:34.533Z,97419.88
2022-08-16T12:40:41.958Z,97405.12
2022-08-16T12:41:46.806Z,97410.22
2022-08-16T12:42:52.893Z,97411.03
2022-08-16T12:43:57.193Z,97411.53
2022-08-16T12:45:14.191Z,97409.09
2022-08-16T12:46:19.062Z,97411.97
2022-08-16T12:47:40.595Z,97419.91
2022-08-16T12:49:09.443Z,97422.22
2022-08-16T12:50:15.411Z,97419.75
2022-08-16T12:51:24.229Z,97412.94
2022-08-16T12:52:33.791Z,97413.25
2022-08-16T12:53:43.910Z,97420.19
2022-08-16T12:54:54.989Z,97418.94
2022-08-16T12:56:01.284Z,97411.31
2022-08-16T12:57:06.989Z,97410.63
2022-08-16T12:58:49.202Z,97405.12
2022-08-16T12:59:43.130Z,97412.16
2022-08-16T13:00:48.715Z,97412.88
2022-08-16T13:01:58.223Z,97408.03
2022-08-16T13:03:03.420Z,97405.22
2022-08-16T13:04:12.491Z,97402.37
2022-08-16T13:05:23.780Z,97397.47
2022-08-16T13:06:29.296Z,97393.94
2022-08-16T13:07:42.347Z,97389.69
2022-08-16T13:08:53.986Z,97393.22
2022-08-16T13:09:58.634Z,97394.56
2022-08-16T13:11:01.980Z,97390.34
2022-08-16T13:12:19.021Z,97382.66
2022-08-16T13:13:25.861Z,97384.06
2022-08-16T13:14:37.360Z,97376.94
2022-08-16T13:15:55.588Z,97376.06
2022-08-16T13:17:19.213Z,97366.75
2022-08-16T13:18:32.331Z,97372.22
2022-08-16T13:21:01.800Z,97371.72
2022-08-16T13:22:05.835Z,97358.06
2022-08-16T13:23:11.712Z,97369.09
2022-08-16T13:24:19.495Z,97361.94
2022-08-16T13:25:25.922Z,97360.66
2022-08-16T13:26:31.342Z,97354.97
2022-08-16T13:28:03.126Z,97364.47
2022-08-16T13:29:00.392Z,97365.16
2022-08-16T13:30:21.794Z,97362.06
2022-08-16T13:31:28.437Z,97369.63
2022-08-16T13:32:39.430Z,97364.72
2022-08-16T13:33:43.220Z,97362.38
2022-08-16T13:34:46.932Z,97359.91
2022-08-16T13:35:58.057Z,97360.34
2022-08-16T13:37:01.371Z,97361.59
2022-08-16T13:38:04.432Z,97367.44
2022-08-16T13:39:10.401Z,97354.53
2022-08-16T13:40:19.757Z,97350.13
2022-08-16T13:41:23.491Z,97352.19
2022-08-16T13:42:26.766Z,97355.50
2022-08-16T13:43:32.512Z,97356.22
2022-08-16T13:44:56.270Z,97353.19
2022-08-16T13:46:04.634Z,97351.81
2022-08-16T13:47:08.566Z,97344.88
2022-08-16T13:48:11.799Z,97343.44
2022-08-16T13:49:27.431Z,97341.16
2022-08-16T13:50:51.335Z,97344.47